Time;durP1;ratioP1;P1;durP2;ratioP2;P2;SDS_P1;SDS_P2;PMS_P1;PMS_P2;Temp;Humidity;BMP_temperature;BMP_pressure;BME280_temperature;BME280_humidity;BME280_pressure;Samples;Min_cycle;Max_cycle;Signal;HPM_P1;HPM_P2
2022/11/07 00:19:51;;;;;;;;;;;;;;;;;;4867616;29;19912;-76
2022/11/07 01:49:18;;;;;;;;;;;;;;;;;;4908108;29;20409;-76
2022/11/07 03:28:23;;;;;;;;;;;;;;;;;;4927971;29;19938;-78
2022/11/07 04:48:03;;;;;;;;;;;;;;;;;;4944923;29;19934;-78
2022/11/07 04:50:49;;;;;;;;;;;;;;;;;;4938623;29;19926;-75
2022/11/07 04:53:36;;;;;;;;;;;;;;;;;;4943419;28;19923;-75
2022/11/07 04:56:22;;;;;;;;;;;;;;;;;;4936662;28;19929;-76
2022/11/07 04:59:09;;;;;;;;;;;;;;;;;;4941672;29;19917;-76
2022/11/07 05:01:55;;;;;;;;;;;;;;;;;;4945604;28;19925;-77
2022/11/07 05:04:42;;;;;;;;;;;;;;;;;;4940454;28;19933;-77
2022/11/07 05:07:31;;;;;;;;;;;;;;;;;;4940468;28;19914;-77
2022/11/07 05:10:17;;;;;;;;;;;;;;;;;;4930816;29;20280;-77
2022/11/07 05:13:04;;;;;;;;;;;;;;;;;;4940356;28;19911;-76
2022/11/07 05:15:50;;;;;;;;;;;;;;;;;;4941345;29;19915;-77
2022/11/07 05:18:39;;;;;;;;;;;;;;;;;;4931552;29;19922;-77
2022/11/07 05:21:26;;;;;;;;;;;;;;;;;;4943058;28;19919;-77
2022/11/07 05:24:12;;;;;;;;;;;;;;;;;;4944203;28;19929;-77
2022/11/07 05:26:59;;;;;;;;;;;;;;;;;;4934366;29;20291;-76
2022/11/07 05:29:45;;;;;;;;;;;;;;;;;;4942391;28;19926;-75
2022/11/07 05:32:32;;;;;;;;;;;;;;;;;;4937918;28;19956;-76
2022/11/07 05:35:18;;;;;;;;;;;;;;;;;;4947234;28;20004;-76
2022/11/07 05:38:05;;;;;;;;;;;;;;;;;;4933131;29;19911;-75
2022/11/07 05:40:57;;;;;;;;;;;;;;;;;;4944045;28;19917;-76
2022/11/07 05:47:14;;;;;;;;;;;;;;;;;;4851170;29;20288;-76
2022/11/07 05:53:19;;;;;;;;;;;;;;;;;;;;;
2022/11/07 05:56:15;;;;;;;;;;;;;;;;;;4910809;29;19915;-76
2022/11/07 05:59:08;;;;;;;;;;;;;;;;;;4910738;29;19934;-76
2022/11/07 06:02:04;;;;;;;;;;;;;;;;;;;;;
2022/11/07 06:04:51;;;;;;;;;;;;;;;;;;4902906;29;19922;-75
2022/11/07 06:07:37;;;;;;;;;;;;;;;;;;4922017;29;20168;-76
2022/11/07 06:10:24;;;;;;;;;;;;;;;;;;4909773;29;19931;-76
2022/11/07 06:13:10;;;;;;;;;;;;;;;;;;4916780;29;19919;-76
2022/11/07 06:15:57;;;;;;;;;;;;;;;;;;4906224;29;19918;-76
2022/11/07 06:18:43;;;;;;;;;;;;;;;;;;4908888;29;19922;-75
2022/11/07 06:21:30;;;;;;;;;;;;;;;;;;4899004;29;19919;-75
2022/11/07 06:24:19;;;;;;;;;;;;;;;;;;4915121;29;19922;-76
2022/11/07 06:27:11;;;;;;;;;;;;;;;;;;4915168;29;19966;-75
2022/11/07 06:29:57;;;;;;;;;;;;;;;;;;4909492;29;19911;-76
2022/11/07 06:32:59;;;;;;;;;;;;;;;;;;4913778;29;19923;-76
2022/11/07 06:35:48;;;;;;;;;;;;;;;;;;4916403;29;19930;-76
2022/11/07 06:38:35;;;;;;;;;;;;;;;;;;4914134;29;19915;-75
2022/11/07 06:41:29;;;;;;;;;;;;;;;;;;4914713;29;19911;-75
2022/11/07 06:44:16;;;;;;;;;;;;;;;;;;4909868;29;19942;-76
2022/11/07 06:47:02;;;;;;;;;;;;;;;;;;4915945;29;20252;-76
2022/11/07 06:49:49;;;;;;;;;;;;;;;;;;4934330;28;19923;-75
2022/11/07 06:52:35;;;;;;;;;;;;;;;;;;4933969;28;20070;-77
2022/11/07 06:55:41;;;;;;;;;;;;;;;;;;;;;
2022/11/07 06:58:39;;;;;;;;;;;;;;;;;;4924269;29;19922;-77
2022/11/07 07:01:25;;;;;;;;;;;;;;;;;;4914542;29;20493;-77
2022/11/07 07:06:51;;;;;;;;;;;;;;;;;;4189539;26;19927;-76
2022/11/07 07:09:37;;;;;;;;;;;;;;;;;;4942394;28;19921;-77
2022/11/07 07:12:27;;;;;;;;;;;;;;;;;;4941443;28;19923;-76
2022/11/07 07:15:16;;;;;;;;;;;;;;;;;;4925534;28;20306;-76
2022/11/07 07:18:11;;;;;;;;;;;;;;;;;;4930717;28;19937;-77
2022/11/07 07:20:57;;;;;;;;;;;;;;;;;;4942232;28;19925;-77
2022/11/07 07:23:44;;;;;;;;;;;;;;;;;;4937412;28;19919;-76
2022/11/07 07:26:30;;;;;;;;;;;;;;;;;;4944095;28;19922;-78
2022/11/07 07:29:17;;;;;;;;;;;;;;;;;;4940713;28;19914;-78
2022/11/07 07:32:03;;;;;;;;;;;;;;;;;;4935857;28;19930;-78
2022/11/07 07:34:53;;;;;;;;;;;;;;;;;;4929552;29;19915;-78
2022/11/07 07:37:39;;;;;;;;;;;;;;;;;;4948387;28;19911;-79
2022/11/07 07:40:26;;;;;;;;;;;;;;;;;;4933076;29;19911;-79
2022/11/07 07:43:22;;;;;;;;;;;;;;;;;;;;;
2022/11/07 07:46:11;;;;;;;;;;;;;;;;;;4942198;28;19918;-79
2022/11/07 07:49:03;;;;;;;;;;;;;;;;;;4933950;28;20483;-79
2022/11/07 07:51:59;;;;;;;;;;;;;;;;;;4931757;28;19945;-79
2022/11/07 07:54:55;;;;;;;;;;;;;;;;;;;;;
2022/11/07 07:57:45;;;;;;;;;;;;;;;;;;4941700;28;19910;-78
2022/11/07 08:00:34;;;;;;;;;;;;;;;;;;4940107;28;19910;-79
2022/11/07 08:03:38;;;;;;;;;;;;;;;;;;4937072;29;19923;-79
2022/11/07 08:06:33;;;;;;;;;;;;;;;;;;4945048;28;19945;-79
2022/11/07 08:09:20;;;;;;;;;;;;;;;;;;4928845;29;19911;-79
2022/11/07 08:12:10;;;;;;;;;;;;;;;;;;4939533;28;19923;-79
2022/11/07 08:14:56;;;;;;;;;;;;;;;;;;4933125;28;20751;-79
2022/11/07 08:17:43;;;;;;;;;;;;;;;;;;4932039;29;19915;-79
2022/11/07 08:20:29;;;;;;;;;;;;;;;;;;4925775;29;19922;-79
2022/11/07 08:23:18;;;;;;;;;;;;;;;;;;4934610;29;20393;-79
2022/11/07 08:26:05;;;;;;;;;;;;;;;;;;4931037;28;19930;-79
2022/11/07 08:29:09;;;;;;;;;;;;;;;;;;4931250;29;19919;-79
2022/11/07 08:35:05;;;;;;;;;;;;;;;;;;4946369;28;19925;-79
2022/11/07 08:38:05;;;;;;;;;;;;;;;;;;4928785;29;19959;-79
2022/11/07 08:41:06;;;;;;;;;;;;;;;;;;4935151;28;19917;-79
2022/11/07 08:43:52;;;;;;;;;;;;;;;;;;4947994;28;19921;-79
2022/11/07 08:46:39;;;;;;;;;;;;;;;;;;4925472;29;19922;-78
2022/11/07 08:49:25;;;;;;;;;;;;;;;;;;4921739;28;19914;-78
2022/11/07 08:52:21;;;;;;;;;;;;;;;;;;4928413;29;19927;-78
2022/11/07 08:55:15;;;;;;;;;;;;;;;;;;4932911;29;19915;-78
2022/11/07 09:01:17;;;;;;;;;;;;;;;;;;4940116;28;19922;-78
2022/11/07 09:04:17;;;;;;;;;;;;;;;;;;;;;
2022/11/07 09:07:14;;;;;;;;;;;;;;;;;;;;;
2022/11/07 09:10:03;;;;;;;;;;;;;;;;;;4943978;28;19911;-79
2022/11/07 09:12:50;;;;;;;;;;;;;;;;;;4931765;29;19919;-79
2022/11/07 09:15:36;;;;;;;;;;;;;;;;;;4933866;29;19926;-79
2022/11/07 09:18:25;;;;;;;;;;;;;;;;;;4948258;28;19914;-79
2022/11/07 09:21:11;;;;;;;;;;;;;;;;;;4947696;28;19926;-78
2022/11/07 09:23:58;;;;;;;;;;;;;;;;;;4932944;28;19910;-79
2022/11/07 09:26:45;;;;;;;;;;;;;;;;;;4932262;28;20274;-79
2022/11/07 09:29:31;;;;;;;;;;;;;;;;;;4947762;28;20013;-79
2022/11/07 09:32:18;;;;;;;;;;;;;;;;;;4927969;28;20283;-79
2022/11/07 09:35:04;;;;;;;;;;;;;;;;;;4931690;29;19914;-78
2022/11/07 09:37:51;;;;;;;;;;;;;;;;;;4952684;28;19914;-78
2022/11/07 09:40:39;;;;;;;;;;;;;;;;;;4937518;28;19917;-78
2022/11/07 09:43:25;;;;;;;;;;;;;;;;;;4945298;28;19919;-78
2022/11/07 09:46:12;;;;;;;;;;;;;;;;;;4951966;28;19914;-77
2022/11/07 09:48:58;;;;;;;;;;;;;;;;;;4937042;28;19919;-77
2022/11/07 09:51:45;;;;;;;;;;;;;;;;;;4951622;28;20366;-77
2022/11/07 09:54:31;;;;;;;;;;;;;;;;;;4943822;28;19925;-77
2022/11/07 09:57:18;;;;;;;;;;;;;;;;;;4937887;29;20282;-77
2022/11/07 10:00:04;;;;;;;;;;;;;;;;;;4952530;28;19917;-78
2022/11/07 10:06:13;;;;;;;;;;;;;;;;;;;;;
2022/11/07 10:09:00;;;;;;;;;;;;;;;;;;4944798;28;19915;-79
2022/11/07 10:11:49;;;;;;;;;;;;;;;;;;4929210;28;19934;-78
2022/11/07 10:14:35;;;;;;;;;;;;;;;;;;4932351;28;19918;-78
2022/11/07 10:17:24;;;;;;;;;;;;;;;;;;4938306;28;19936;-78
2022/11/07 10:20:11;;;;;;;;;;;;;;;;;;4949922;29;19957;-78
2022/11/07 10:22:57;;;;;;;;;;;;;;;;;;4948078;28;19916;-78
2022/11/07 10:25:44;;;;;;;;;;;;;;;;;;4935450;28;19922;-77
2022/11/07 10:28:31;;;;;;;;;;;;;;;;;;4950796;28;19925;-79
2022/11/07 10:31:17;;;;;;;;;;;;;;;;;;4928854;29;19923;-79
2022/11/07 10:34:04;;;;;;;;;;;;;;;;;;4935659;29;19926;-79
2022/11/07 10:36:53;;;;;;;;;;;;;;;;;;4936733;29;19914;-78
2022/11/07 10:39:40;;;;;;;;;;;;;;;;;;4925281;29;19917;-79
2022/11/07 10:42:26;;;;;;;;;;;;;;;;;;4926465;29;19922;-80
2022/11/07 10:45:13;;;;;;;;;;;;;;;;;;4930883;29;19929;-78
2022/11/07 10:47:59;;;;;;;;;;;;;;;;;;4934538;29;19922;-78
2022/11/07 10:50:46;;;;;;;;;;;;;;;;;;4935558;28;19918;-78
2022/11/07 10:53:32;;;;;;;;;;;;;;;;;;4933987;29;20018;-78
2022/11/07 10:56:19;;;;;;;;;;;;;;;;;;4926785;29;19917;-78
2022/11/07 10:59:05;;;;;;;;;;;;;;;;;;4929968;28;19915;-78
2022/11/07 11:01:52;;;;;;;;;;;;;;;;;;4931847;28;19915;-79
2022/11/07 11:04:41;;;;;;;;;;;;;;;;;;4935455;29;19911;-78
2022/11/07 11:07:30;;;;;;;;;;;;;;;;;;4923652;29;19923;-79
2022/11/07 11:10:17;;;;;;;;;;;;;;;;;;4947213;28;19922;-78
2022/11/07 11:13:04;;;;;;;;;;;;;;;;;;4935699;28;19925;-78
2022/11/07 11:31:41;;;;;;;;;;;;;;;;;;;;;
2022/11/07 11:35:09;;;;;;;;;;;;;;;;;;;;;
2022/11/07 11:38:01;;;;;;;;;;;;;;;;;;;;;
2022/11/07 11:41:07;;;;;;;;;;;;;;;;;;;;;
2022/11/07 11:47:05;;;;;;;;;;;;;;;;;;4948320;28;19919;-79
2022/11/07 11:49:51;;;;;;;;;;;;;;;;;;4944387;28;20274;-79
2022/11/07 11:52:38;;;;;;;;;;;;;;;;;;4942277;28;20286;-78
2022/11/07 11:55:24;;;;;;;;;;;;;;;;;;4932740;28;19918;-78
2022/11/07 11:58:13;;;;;;;;;;;;;;;;;;4932072;28;19918;-78
2022/11/07 12:01:02;;;;;;;;;;;;;;;;;;4934418;29;20370;-78
2022/11/07 12:03:56;;;;;;;;;;;;;;;;;;4950345;28;20275;-78
2022/11/07 12:06:43;;;;;;;;;;;;;;;;;;4944784;28;19914;-79
2022/11/07 12:09:31;;;;;;;;;;;;;;;;;;4929218;29;19950;-79
2022/11/07 12:12:20;;;;;;;;;;;;;;;;;;4920958;29;19919;-78
2022/11/07 12:15:06;;;;;;;;;;;;;;;;;;4918847;29;19926;-79
2022/11/07 12:17:58;;;;;;;;;;;;;;;;;;4923338;29;20294;-78
2022/11/07 12:20:55;;;;;;;;;;;;;;;;;;;;;
2022/11/07 12:23:57;;;;;;;;;;;;;;;;;;4917604;29;19937;-78
2022/11/07 12:26:55;;;;;;;;;;;;;;;;;;4924522;29;19915;-77
2022/11/07 12:32:53;;;;;;;;;;;;;;;;;;4925473;29;19945;-79
2022/11/07 12:35:45;;;;;;;;;;;;;;;;;;4928384;29;19942;-78
2022/11/07 12:45:06;;;;;;;;;;;;;;;;;;;;;
2022/11/07 12:48:14;;;;;;;;;;;;;;;;;;4925205;29;19914;-79
2022/11/07 12:51:19;;;;;;;;;;;;;;;;;;;;;
2022/11/07 12:54:06;;;;;;;;;;;;;;;;;;4927768;29;19921;-79
2022/11/07 12:57:05;;;;;;;;;;;;;;;;;;;;;
2022/11/07 13:03:06;;;;;;;;;;;;;;;;;;4910781;29;19933;-79
2022/11/07 13:06:15;;;;;;;;;;;;;;;;;;;;;
2022/11/07 13:09:20;;;;;;;;;;;;;;;;;;4941672;29;19927;-79
2022/11/07 13:15:39;;;;;;;;;;;;;;;;;;4943118;28;20579;-80
2022/11/07 13:18:47;;;;;;;;;;;;;;;;;;4931914;29;19929;-79
2022/11/07 13:21:41;;;;;;;;;;;;;;;;;;4948842;28;19924;-78
2022/11/07 13:31:27;;;;;;;;;;;;;;;;;;4912232;28;19925;-77
2022/11/07 13:50:32;;;;;;;;;;;;;;;;;;;;;
2022/11/07 13:59:38;;;;;;;;;;;;;;;;;;4902049;29;19925;-78
2022/11/07 14:02:25;;;;;;;;;;;;;;;;;;4924219;29;19922;-78
2022/11/07 14:05:11;;;;;;;;;;;;;;;;;;4913772;29;19923;-78
2022/11/07 14:08:14;;;;;;;;;;;;;;;;;;4926592;29;19914;-78
2022/11/07 14:11:14;;;;;;;;;;;;;;;;;;;;;
2022/11/07 14:14:04;;;;;;;;;;;;;;;;;;4927631;29;19919;-78
2022/11/07 14:17:06;;;;;;;;;;;;;;;;;;;;;
2022/11/07 14:20:03;;;;;;;;;;;;;;;;;;;;;
2022/11/07 14:25:59;;;;;;;;;;;;;;;;;;4924475;29;19953;-79
2022/11/07 14:32:07;;;;;;;;;;;;;;;;;;4856123;29;19928;-78
2022/11/07 14:35:01;;;;;;;;;;;;;;;;;;4854715;29;19923;-78
2022/11/07 15:06:10;;;;;;;;;;;;;;;;;;4858048;29;19920;-78
2022/11/07 15:09:13;;;;;;;;;;;;;;;;;;;;;
2022/11/07 15:12:09;;;;;;;;;;;;;;;;;;4852160;29;19931;-78
2022/11/07 15:14:57;;;;;;;;;;;;;;;;;;4841341;29;19916;-78
2022/11/07 15:17:47;;;;;;;;;;;;;;;;;;4839984;29;20315;-78
2022/11/07 15:20:36;;;;;;;;;;;;;;;;;;4838939;29;19930;-78
2022/11/07 15:26:44;;;;;;;;;;;;;;;;;;4901925;29;19915;-79
2022/11/07 15:32:45;;;;;;;;;;;;;;;;;;4911734;29;19923;-79
2022/11/07 15:35:36;;;;;;;;;;;;;;;;;;4898497;29;19918;-78
2022/11/07 15:38:23;;;;;;;;;;;;;;;;;;4899253;29;19922;-79
2022/11/07 15:44:25;;;;;;;;;;;;;;;;;;4844898;29;19927;-80
2022/11/07 15:47:14;;;;;;;;;;;;;;;;;;4899650;29;21501;-80
2022/11/07 15:50:00;;;;;;;;;;;;;;;;;;4892045;29;19911;-81
2022/11/07 15:52:47;;;;;;;;;;;;;;;;;;4893105;29;20920;-80
2022/11/07 15:55:33;;;;;;;;;;;;;;;;;;4891182;29;20664;-80
2022/11/07 15:58:20;;;;;;;;;;;;;;;;;;4896409;29;19930;-80
2022/11/07 16:01:06;;;;;;;;;;;;;;;;;;4908279;29;19918;-80
2022/11/07 16:03:54;;;;;;;;;;;;;;;;;;4902012;29;19919;-81
2022/11/07 16:06:40;;;;;;;;;;;;;;;;;;4884389;29;19922;-81
2022/11/07 16:09:31;;;;;;;;;;;;;;;;;;4906894;29;19930;-82
2022/11/07 16:12:17;;;;;;;;;;;;;;;;;;4907531;29;19915;-78
2022/11/07 16:15:04;;;;;;;;;;;;;;;;;;4902933;29;19925;-78
2022/11/07 16:17:50;;;;;;;;;;;;;;;;;;4909705;29;19918;-77
2022/11/07 16:20:37;;;;;;;;;;;;;;;;;;4900706;29;20372;-78
2022/11/07 16:23:23;;;;;;;;;;;;;;;;;;4909803;29;19931;-78
2022/11/07 16:26:09;;;;;;;;;;;;;;;;;;4902763;29;20291;-76
2022/11/07 16:28:56;;;;;;;;;;;;;;;;;;4903236;29;20074;-77
2022/11/07 16:31:42;;;;;;;;;;;;;;;;;;4901052;29;20296;-79
2022/11/07 16:34:29;;;;;;;;;;;;;;;;;;4911147;29;19918;-79
2022/11/07 16:37:15;;;;;;;;;;;;;;;;;;4902940;29;19927;-79
2022/11/07 16:40:02;;;;;;;;;;;;;;;;;;4910249;29;19912;-79
2022/11/07 16:42:51;;;;;;;;;;;;;;;;;;4907706;29;19924;-77
2022/11/07 16:45:38;;;;;;;;;;;;;;;;;;4906154;29;19938;-78
2022/11/07 16:48:24;;;;;;;;;;;;;;;;;;4906465;29;19924;-78
2022/11/07 16:51:11;;;;;;;;;;;;;;;;;;4905082;29;20469;-78
2022/11/07 16:53:57;;;;;;;;;;;;;;;;;;4899834;29;19923;-78
2022/11/07 16:56:46;;;;;;;;;;;;;;;;;;4903729;29;19915;-75
2022/11/07 16:59:32;;;;;;;;;;;;;;;;;;4900459;29;19915;-76
2022/11/07 17:02:19;;;;;;;;;;;;;;;;;;4898614;29;20352;-75
2022/11/07 17:05:06;;;;;;;;;;;;;;;;;;4908518;29;20109;-76
2022/11/07 17:07:54;;;;;;;;;;;;;;;;;;4912074;29;19921;-77
2022/11/07 17:10:41;;;;;;;;;;;;;;;;;;4938202;28;19934;-76
2022/11/07 17:13:27;;;;;;;;;;;;;;;;;;4946669;28;19918;-76
2022/11/07 17:16:15;;;;;;;;;;;;;;;;;;4927837;29;20305;-75
2022/11/07 17:19:01;;;;;;;;;;;;;;;;;;4937096;28;20327;-76
2022/11/07 17:21:48;;;;;;;;;;;;;;;;;;4941134;28;19911;-76
2022/11/07 17:24:35;;;;;;;;;;;;;;;;;;4944597;28;19917;-75
2022/11/07 17:27:21;;;;;;;;;;;;;;;;;;4942955;28;19932;-76
2022/11/07 17:30:08;;;;;;;;;;;;;;;;;;4949377;28;19918;-76
2022/11/07 17:32:54;;;;;;;;;;;;;;;;;;4951828;28;19923;-75
2022/11/07 17:35:41;;;;;;;;;;;;;;;;;;4951175;28;19926;-76
2022/11/07 17:38:27;;;;;;;;;;;;;;;;;;4949776;28;20424;-76
2022/11/07 17:41:17;;;;;;;;;;;;;;;;;;4947246;28;19922;-78
2022/11/07 17:44:03;;;;;;;;;;;;;;;;;;4932665;29;19923;-78
2022/11/07 17:46:50;;;;;;;;;;;;;;;;;;4941389;28;19921;-79
2022/11/07 17:49:36;;;;;;;;;;;;;;;;;;4943805;28;20029;-78
2022/11/07 17:52:23;;;;;;;;;;;;;;;;;;4919478;29;19977;-78
2022/11/07 17:55:09;;;;;;;;;;;;;;;;;;4947609;28;19910;-78
2022/11/07 17:57:56;;;;;;;;;;;;;;;;;;4949681;28;19918;-78
2022/11/07 18:00:42;;;;;;;;;;;;;;;;;;4943557;28;19910;-78
2022/11/07 18:03:29;;;;;;;;;;;;;;;;;;4946831;28;19915;-78
2022/11/07 18:06:15;;;;;;;;;;;;;;;;;;4941291;28;19921;-78
2022/11/07 18:09:01;;;;;;;;;;;;;;;;;;4947776;28;19952;-79
2022/11/07 18:11:48;;;;;;;;;;;;;;;;;;4943989;28;19914;-78
2022/11/07 18:14:34;;;;;;;;;;;;;;;;;;4947520;28;19915;-78
2022/11/07 18:17:21;;;;;;;;;;;;;;;;;;4946248;28;20259;-78
2022/11/07 18:20:08;;;;;;;;;;;;;;;;;;4940875;28;19917;-78
2022/11/07 18:22:54;;;;;;;;;;;;;;;;;;4951083;28;19921;-78
2022/11/07 18:25:42;;;;;;;;;;;;;;;;;;4949969;28;19926;-78
2022/11/07 18:28:28;;;;;;;;;;;;;;;;;;4946985;28;20383;-78
2022/11/07 18:31:15;;;;;;;;;;;;;;;;;;4942470;28;19911;-78
2022/11/07 18:34:02;;;;;;;;;;;;;;;;;;4948836;28;19929;-78
2022/11/07 18:36:49;;;;;;;;;;;;;;;;;;4941262;28;20362;-78
2022/11/07 18:39:36;;;;;;;;;;;;;;;;;;4944298;28;19910;-78
2022/11/07 18:42:22;;;;;;;;;;;;;;;;;;4940668;28;19918;-78
2022/11/07 18:45:08;;;;;;;;;;;;;;;;;;4940659;28;19918;-78
2022/11/07 18:47:55;;;;;;;;;;;;;;;;;;4931401;29;20274;-78
2022/11/07 18:50:41;;;;;;;;;;;;;;;;;;4937858;29;19921;-78
2022/11/07 18:53:28;;;;;;;;;;;;;;;;;;4951044;28;20385;-78
2022/11/07 18:56:14;;;;;;;;;;;;;;;;;;4949118;28;19914;-78
2022/11/07 18:59:01;;;;;;;;;;;;;;;;;;4946764;28;19942;-78
2022/11/07 19:01:47;;;;;;;;;;;;;;;;;;4939564;28;19998;-78
2022/11/07 19:04:34;;;;;;;;;;;;;;;;;;4933995;28;19929;-78
2022/11/07 19:07:20;;;;;;;;;;;;;;;;;;4945121;28;19926;-78
2022/11/07 19:10:07;;;;;;;;;;;;;;;;;;4949559;28;19926;-78
2022/11/07 19:12:53;;;;;;;;;;;;;;;;;;4948382;28;19930;-77
2022/11/07 19:15:40;;;;;;;;;;;;;;;;;;4946062;28;19910;-78
2022/11/07 19:18:26;;;;;;;;;;;;;;;;;;4920263;29;19934;-77
2022/11/07 19:21:13;;;;;;;;;;;;;;;;;;4938740;28;19917;-77
2022/11/07 19:23:59;;;;;;;;;;;;;;;;;;4950414;28;20508;-78
2022/11/07 19:26:46;;;;;;;;;;;;;;;;;;4950776;28;19929;-78
2022/11/07 19:29:32;;;;;;;;;;;;;;;;;;4944209;28;19926;-78
2022/11/07 19:32:19;;;;;;;;;;;;;;;;;;4945206;28;19914;-78
2022/11/07 19:35:05;;;;;;;;;;;;;;;;;;4941158;28;19915;-78
2022/11/07 19:37:52;;;;;;;;;;;;;;;;;;4941201;28;19915;-78
2022/11/07 19:40:38;;;;;;;;;;;;;;;;;;4939040;28;20441;-78
2022/11/07 19:43:25;;;;;;;;;;;;;;;;;;4940488;28;19922;-77
2022/11/07 19:46:11;;;;;;;;;;;;;;;;;;4936171;28;20587;-77
2022/11/07 19:48:58;;;;;;;;;;;;;;;;;;4936057;28;19915;-77
2022/11/07 19:51:44;;;;;;;;;;;;;;;;;;4940333;28;19922;-77
2022/11/07 19:54:30;;;;;;;;;;;;;;;;;;4940131;28;19919;-77
2022/11/07 19:57:17;;;;;;;;;;;;;;;;;;4936980;28;20375;-77
2022/11/07 20:00:04;;;;;;;;;;;;;;;;;;4939231;28;19921;-77
2022/11/07 20:02:51;;;;;;;;;;;;;;;;;;4939445;29;19944;-77
2022/11/07 20:05:37;;;;;;;;;;;;;;;;;;4938474;28;19914;-78
2022/11/07 20:08:26;;;;;;;;;;;;;;;;;;4949446;29;19930;-77
2022/11/07 20:11:13;;;;;;;;;;;;;;;;;;4948029;29;19929;-77
2022/11/07 20:13:59;;;;;;;;;;;;;;;;;;4939732;29;19926;-78
2022/11/07 20:16:45;;;;;;;;;;;;;;;;;;4943584;28;19910;-77
2022/11/07 20:19:32;;;;;;;;;;;;;;;;;;4938245;28;20268;-82
2022/11/07 20:22:19;;;;;;;;;;;;;;;;;;4938444;28;19921;-78
2022/11/07 20:25:05;;;;;;;;;;;;;;;;;;4937927;28;19937;-80
2022/11/07 20:27:52;;;;;;;;;;;;;;;;;;4942732;28;19919;-77
2022/11/07 20:30:38;;;;;;;;;;;;;;;;;;4935467;29;20374;-75
2022/11/07 20:33:25;;;;;;;;;;;;;;;;;;4940005;28;19922;-77
2022/11/07 20:36:14;;;;;;;;;;;;;;;;;;4927158;28;19924;-77
2022/11/07 20:39:01;;;;;;;;;;;;;;;;;;4942415;28;20251;-77
2022/11/07 20:41:47;;;;;;;;;;;;;;;;;;4943000;28;19918;-77
2022/11/07 20:44:34;;;;;;;;;;;;;;;;;;4945498;28;19918;-77
2022/11/07 20:47:21;;;;;;;;;;;;;;;;;;4939888;28;20393;-87
2022/11/07 20:50:13;;;;;;;;;;;;;;;;;;4940588;28;19929;-87
2022/11/07 20:52:59;;;;;;;;;;;;;;;;;;4939758;28;19925;-77
2022/11/07 20:55:46;;;;;;;;;;;;;;;;;;4944155;28;19919;-77
2022/11/07 20:58:32;;;;;;;;;;;;;;;;;;4942251;28;20294;-78
2022/11/07 21:01:19;;;;;;;;;;;;;;;;;;4939542;28;20401;-77
2022/11/07 21:04:05;;;;;;;;;;;;;;;;;;4939126;28;19918;-76
2022/11/07 21:06:52;;;;;;;;;;;;;;;;;;4939249;28;20367;-77
2022/11/07 21:09:38;;;;;;;;;;;;;;;;;;4939319;29;19933;-76
2022/11/07 21:12:25;;;;;;;;;;;;;;;;;;4936881;28;20406;-76
2022/11/07 21:15:11;;;;;;;;;;;;;;;;;;4937410;28;19918;-77
2022/11/07 21:17:58;;;;;;;;;;;;;;;;;;4928139;28;20294;-76
2022/11/07 21:20:44;;;;;;;;;;;;;;;;;;4928523;29;19914;-75
2022/11/07 21:23:31;;;;;;;;;;;;;;;;;;4940886;28;19915;-75
2022/11/07 21:26:17;;;;;;;;;;;;;;;;;;4941138;28;19914;-77
2022/11/07 21:29:06;;;;;;;;;;;;;;;;;;4940880;28;19925;-75
2022/11/07 21:31:53;;;;;;;;;;;;;;;;;;4945140;29;19911;-76
2022/11/07 21:34:44;;;;;;;;;;;;;;;;;;4942233;28;19922;-76
2022/11/07 21:37:30;;;;;;;;;;;;;;;;;;4942317;28;19911;-75
2022/11/07 21:40:17;;;;;;;;;;;;;;;;;;4939119;29;19919;-77
2022/11/07 21:43:14;;;;;;;;;;;;;;;;;;4946118;28;19937;-77
2022/11/07 21:46:01;;;;;;;;;;;;;;;;;;4929978;29;19915;-76
2022/11/07 21:48:47;;;;;;;;;;;;;;;;;;4928966;29;19921;-76
2022/11/07 21:51:43;;;;;;;;;;;;;;;;;;4922159;29;19915;-77
2022/11/07 21:54:48;;;;;;;;;;;;;;;;;;;;;
2022/11/07 22:00:52;;;;;;;;;;;;;;;;;;4905373;29;20762;-77
2022/11/07 22:06:43;;;;;;;;;;;;;;;;;;4924461;29;19911;-76
2022/11/07 22:09:30;;;;;;;;;;;;;;;;;;4927782;29;19929;-76
2022/11/07 22:12:16;;;;;;;;;;;;;;;;;;4926957;28;20284;-77
2022/11/07 22:15:03;;;;;;;;;;;;;;;;;;4949722;28;19915;-78
2022/11/07 22:24:22;;;;;;;;;;;;;;;;;;4944589;28;19921;-77
2022/11/07 22:27:22;;;;;;;;;;;;;;;;;;4929177;29;19946;-77
2022/11/07 22:30:19;;;;;;;;;;;;;;;;;;4941270;29;19918;-77
2022/11/07 22:33:08;;;;;;;;;;;;;;;;;;4936802;29;20282;-77
2022/11/07 22:35:56;;;;;;;;;;;;;;;;;;4931259;28;19929;-77
2022/11/07 22:38:42;;;;;;;;;;;;;;;;;;4933804;28;19918;-76
2022/11/07 22:41:29;;;;;;;;;;;;;;;;;;4944370;28;19933;-77
2022/11/07 22:44:15;;;;;;;;;;;;;;;;;;4951361;29;19920;-76
2022/11/07 22:47:02;;;;;;;;;;;;;;;;;;4926362;28;19922;-77
2022/11/07 22:49:48;;;;;;;;;;;;;;;;;;4926858;28;20381;-77
2022/11/07 22:52:57;;;;;;;;;;;;;;;;;;;;;
2022/11/07 23:14:40;;;;;;;;;;;;;;;;;;4830470;29;19921;-77
2022/11/07 23:33:12;;;;;;;;;;;;;;;;;;4818930;29;19925;-77
2022/11/07 23:51:35;;;;;;;;;;;;;;;;;;4868990;29;19922;-76
